sensor_id;sensor_type;location;lat;lon;timestamp;pressure;altitude;pressure_sealevel;temperature;humidity
19797;BME280;10058;57.654;12.044;2023-02-19T00:02:08;100318.75;;;2.22;100.00
19797;BME280;10058;57.654;12.044;2023-02-19T00:07:36;100317.91;;;2.06;100.00
19797;BME280;10058;57.654;12.044;2023-02-19T00:10:01;100318.75;;;2.22;100.00
19797;BME280;10058;57.654;12.044;2023-02-19T00:12:28;100322.53;;;2.12;100.00
19797;BME280;10058;57.654;12.044;2023-02-19T00:14:54;100318.72;;;2.05;100.00
19797;BME280;10058;57.654;12.044;2023-02-19T00:17:21;100329.47;;;1.95;100.00
19797;BME280;10058;57.654;12.044;2023-02-19T00:19:46;100325.72;;;1.90;100.00
19797;BME280;10058;57.654;12.044;2023-02-19T00:22:11;100325.22;;;1.81;100.00
19797;BME280;10058;57.654;12.044;2023-02-19T00:27:39;100330.25;;;1.78;100.00
19797;BME280;10058;57.654;12.044;2023-02-19T00:30:04;100324.66;;;1.87;100.00
19797;BME280;10058;57.654;12.044;2023-02-19T00:32:30;100321.91;;;2.00;100.00
19797;BME280;10058;57.654;12.044;2023-02-19T00:34:55;100323.25;;;1.93;100.00
19797;BME280;10058;57.654;12.044;2023-02-19T00:37:20;100318.84;;;1.92;100.00
19797;BME280;10058;57.654;12.044;2023-02-19T00:39:45;100310.09;;;1.90;100.00
19797;BME280;10058;57.654;12.044;2023-02-19T00:42:10;100318.13;;;1.95;100.00
19797;BME280;10058;57.654;12.044;2023-02-19T00:47:38;100313.00;;;2.13;100.00
19797;BME280;10058;57.654;12.044;2023-02-19T00:50:04;100307.53;;;2.08;100.00
19797;BME280;10058;57.654;12.044;2023-02-19T00:52:29;100319.53;;;2.04;100.00
19797;BME280;10058;57.654;12.044;2023-02-19T00:54:54;100319.38;;;2.01;100.00
19797;BME280;10058;57.654;12.044;2023-02-19T00:57:19;100323.28;;;2.09;100.00
19797;BME280;10058;57.654;12.044;2023-02-19T00:59:44;100314.16;;;2.01;100.00
19797;BME280;10058;57.654;12.044;2023-02-19T01:02:09;100317.16;;;2.09;100.00
19797;BME280;10058;57.654;12.044;2023-02-19T01:07:37;100330.78;;;2.20;100.00
19797;BME280;10058;57.654;12.044;2023-02-19T01:10:03;100326.56;;;2.05;100.00
19797;BME280;10058;57.654;12.044;2023-02-19T01:12:28;100329.97;;;2.04;100.00
19797;BME280;10058;57.654;12.044;2023-02-19T01:14:53;100332.66;;;2.06;100.00
19797;BME280;10058;57.654;12.044;2023-02-19T01:17:19;100325.25;;;2.14;100.00
19797;BME280;10058;57.654;12.044;2023-02-19T01:19:44;100323.94;;;2.22;100.00
19797;BME280;10058;57.654;12.044;2023-02-19T01:22:09;100328.66;;;2.13;100.00
19797;BME280;10058;57.654;12.044;2023-02-19T01:27:37;100329.47;;;2.12;100.00
19797;BME280;10058;57.654;12.044;2023-02-19T01:30:03;100326.38;;;2.02;100.00
19797;BME280;10058;57.654;12.044;2023-02-19T01:32:28;100334.81;;;1.82;100.00
19797;BME280;10058;57.654;12.044;2023-02-19T01:34:53;100337.06;;;1.76;100.00
19797;BME280;10058;57.654;12.044;2023-02-19T01:37:18;100345.69;;;1.75;100.00
19797;BME280;10058;57.654;12.044;2023-02-19T01:39:43;100341.63;;;1.64;100.00
19797;BME280;10058;57.654;12.044;2023-02-19T01:42:12;100339.81;;;1.63;100.00
19797;BME280;10058;57.654;12.044;2023-02-19T01:47:41;100349.09;;;1.43;100.00
19797;BME280;10058;57.654;12.044;2023-02-19T01:50:06;100347.75;;;1.50;100.00
19797;BME280;10058;57.654;12.044;2023-02-19T01:52:32;100338.56;;;1.56;100.00
19797;BME280;10058;57.654;12.044;2023-02-19T01:55:00;100345.03;;;1.63;100.00
19797;BME280;10058;57.654;12.044;2023-02-19T01:57:27;100334.47;;;1.76;100.00
19797;BME280;10058;57.654;12.044;2023-02-19T01:59:55;100344.84;;;1.60;100.00
19797;BME280;10058;57.654;12.044;2023-02-19T02:02:22;100344.13;;;1.62;100.00
19797;BME280;10058;57.654;12.044;2023-02-19T02:07:52;100345.19;;;1.66;100.00
19797;BME280;10058;57.654;12.044;2023-02-19T02:10:35;100339.09;;;1.65;100.00
19797;BME280;10058;57.654;12.044;2023-02-19T02:13:01;100340.50;;;1.75;100.00
19797;BME280;10058;57.654;12.044;2023-02-19T02:15:34;100343.31;;;1.63;100.00
19797;BME280;10058;57.654;12.044;2023-02-19T02:20:52;100346.28;;;1.69;100.00
19797;BME280;10058;57.654;12.044;2023-02-19T02:31:24;100353.16;;;1.53;100.00
19797;BME280;10058;57.654;12.044;2023-02-19T02:33:58;100363.03;;;1.44;100.00
19797;BME280;10058;57.654;12.044;2023-02-19T02:38:53;100365.88;;;1.63;100.00
19797;BME280;10058;57.654;12.044;2023-02-19T02:41:20;100362.81;;;1.70;100.00
19797;BME280;10058;57.654;12.044;2023-02-19T02:43:46;100366.41;;;1.57;100.00
19797;BME280;10058;57.654;12.044;2023-02-19T02:49:17;100361.78;;;1.52;100.00
19797;BME280;10058;57.654;12.044;2023-02-19T02:51:45;100372.00;;;1.49;100.00
19797;BME280;10058;57.654;12.044;2023-02-19T02:54:13;100380.44;;;1.45;100.00
19797;BME280;10058;57.654;12.044;2023-02-19T02:56:58;100379.19;;;1.53;100.00
19797;BME280;10058;57.654;12.044;2023-02-19T02:59:25;100385.47;;;1.42;100.00
19797;BME280;10058;57.654;12.044;2023-02-19T03:01:56;100387.09;;;1.39;100.00
19797;BME280;10058;57.654;12.044;2023-02-19T03:07:38;100394.44;;;1.47;100.00
19797;BME280;10058;57.654;12.044;2023-02-19T03:10:04;100394.09;;;1.40;100.00
19797;BME280;10058;57.654;12.044;2023-02-19T03:12:31;100390.88;;;1.30;100.00
19797;BME280;10058;57.654;12.044;2023-02-19T03:15:16;100398.06;;;1.49;100.00
19797;BME280;10058;57.654;12.044;2023-02-19T03:18:02;100401.63;;;1.51;100.00
19797;BME280;10058;57.654;12.044;2023-02-19T03:20:49;100405.41;;;1.56;100.00
19797;BME280;10058;57.654;12.044;2023-02-19T03:23:15;100409.72;;;1.40;100.00
19797;BME280;10058;57.654;12.044;2023-02-19T03:28:45;100430.56;;;1.26;100.00
19797;BME280;10058;57.654;12.044;2023-02-19T03:31:30;100419.59;;;1.31;100.00
19797;BME280;10058;57.654;12.044;2023-02-19T03:33:58;100418.81;;;1.32;100.00
19797;BME280;10058;57.654;12.044;2023-02-19T03:36:24;100430.38;;;1.52;100.00
19797;BME280;10058;57.654;12.044;2023-02-19T03:41:22;100432.81;;;1.34;100.00
19797;BME280;10058;57.654;12.044;2023-02-19T03:43:58;100432.19;;;1.38;100.00
19797;BME280;10058;57.654;12.044;2023-02-19T03:52:19;100443.22;;;1.49;100.00
19797;BME280;10058;57.654;12.044;2023-02-19T03:54:50;100440.25;;;1.43;100.00
19797;BME280;10058;57.654;12.044;2023-02-19T04:00:10;100440.09;;;1.55;100.00
19797;BME280;10058;57.654;12.044;2023-02-19T04:02:44;100434.56;;;1.65;100.00
19797;BME280;10058;57.654;12.044;2023-02-19T04:08:15;100438.28;;;1.54;100.00
19797;BME280;10058;57.654;12.044;2023-02-19T04:10:41;100457.66;;;1.59;100.00
19797;BME280;10058;57.654;12.044;2023-02-19T04:13:09;100452.13;;;1.53;100.00
19797;BME280;10058;57.654;12.044;2023-02-19T04:15:35;100453.97;;;1.40;100.00
19797;BME280;10058;57.654;12.044;2023-02-19T04:18:03;100448.34;;;1.48;100.00
19797;BME280;10058;57.654;12.044;2023-02-19T04:20:31;100457.06;;;1.33;100.00
19797;BME280;10058;57.654;12.044;2023-02-19T04:22:58;100463.41;;;1.24;100.00
19797;BME280;10058;57.654;12.044;2023-02-19T04:28:27;100458.56;;;1.45;100.00
19797;BME280;10058;57.654;12.044;2023-02-19T04:30:52;100465.75;;;1.49;100.00
19797;BME280;10058;57.654;12.044;2023-02-19T04:33:17;100464.59;;;1.44;100.00
19797;BME280;10058;57.654;12.044;2023-02-19T04:35:42;100468.78;;;1.42;100.00
19797;BME280;10058;57.654;12.044;2023-02-19T04:38:07;100468.78;;;1.42;100.00
19797;BME280;10058;57.654;12.044;2023-02-19T04:40:33;100477.06;;;1.34;100.00
19797;BME280;10058;57.654;12.044;2023-02-19T04:42:58;100486.59;;;1.34;100.00
19797;BME280;10058;57.654;12.044;2023-02-19T04:48:26;100491.03;;;1.22;100.00
19797;BME280;10058;57.654;12.044;2023-02-19T04:50:51;100491.25;;;1.39;100.00
19797;BME280;10058;57.654;12.044;2023-02-19T04:53:17;100498.91;;;1.36;100.00
19797;BME280;10058;57.654;12.044;2023-02-19T04:55:42;100493.66;;;1.22;100.00
19797;BME280;10058;57.654;12.044;2023-02-19T04:58:07;100493.75;;;1.23;100.00
19797;BME280;10058;57.654;12.044;2023-02-19T05:00:32;100498.06;;;1.23;100.00
19797;BME280;10058;57.654;12.044;2023-02-19T05:02:58;100457.84;;;1.03;100.00
19797;BME280;10058;57.654;12.044;2023-02-19T05:08:26;100529.28;;;1.23;100.00
19797;BME280;10058;57.654;12.044;2023-02-19T05:10:51;100526.44;;;1.18;100.00
19797;BME280;10058;57.654;12.044;2023-02-19T05:13:16;100530.31;;;0.97;100.00
19797;BME280;10058;57.654;12.044;2023-02-19T05:15:41;100533.53;;;0.93;100.00
19797;BME280;10058;57.654;12.044;2023-02-19T05:18:06;100536.06;;;1.06;100.00
19797;BME280;10058;57.654;12.044;2023-02-19T05:20:31;100538.88;;;1.09;100.00
19797;BME280;10058;57.654;12.044;2023-02-19T05:22:57;100540.13;;;1.01;100.00
19797;BME280;10058;57.654;12.044;2023-02-19T05:28:24;100544.78;;;0.79;100.00
19797;BME280;10058;57.654;12.044;2023-02-19T05:30:53;100546.00;;;0.70;100.00
19797;BME280;10058;57.654;12.044;2023-02-19T05:33:19;100549.22;;;0.66;100.00
19797;BME280;10058;57.654;12.044;2023-02-19T05:35:54;100548.06;;;0.48;100.00
19797;BME280;10058;57.654;12.044;2023-02-19T05:38:19;100553.81;;;0.70;100.00
19797;BME280;10058;57.654;12.044;2023-02-19T05:40:44;100545.19;;;0.72;100.00
19797;BME280;10058;57.654;12.044;2023-02-19T05:43:10;100551.03;;;0.67;100.00
19797;BME280;10058;57.654;12.044;2023-02-19T05:48:38;100570.34;;;0.58;100.00
19797;BME280;10058;57.654;12.044;2023-02-19T05:51:05;100571.03;;;0.55;100.00
19797;BME280;10058;57.654;12.044;2023-02-19T05:53:31;100575.97;;;0.51;100.00
19797;BME280;10058;57.654;12.044;2023-02-19T05:55:56;100582.41;;;0.70;100.00
19797;BME280;10058;57.654;12.044;2023-02-19T05:58:22;100575.25;;;0.66;100.00
19797;BME280;10058;57.654;12.044;2023-02-19T06:00:47;100578.66;;;0.65;100.00
19797;BME280;10058;57.654;12.044;2023-02-19T06:03:12;100582.94;;;0.65;100.00
19797;BME280;10058;57.654;12.044;2023-02-19T06:08:40;100600.06;;;0.35;100.00
19797;BME280;10058;57.654;12.044;2023-02-19T06:11:05;100597.25;;;0.19;100.00
19797;BME280;10058;57.654;12.044;2023-02-19T06:13:31;100600.84;;;0.08;100.00
19797;BME280;10058;57.654;12.044;2023-02-19T06:15:56;100602.06;;;-0.01;100.00
19797;BME280;10058;57.654;12.044;2023-02-19T06:18:21;100599.47;;;-0.01;100.00
19797;BME280;10058;57.654;12.044;2023-02-19T06:20:46;100608.06;;;-0.02;100.00
19797;BME280;10058;57.654;12.044;2023-02-19T06:23:11;100603.25;;;0.05;100.00
19797;BME280;10058;57.654;12.044;2023-02-19T06:28:40;100604.88;;;0.16;100.00
19797;BME280;10058;57.654;12.044;2023-02-19T06:31:06;100610.34;;;0.07;100.00
19797;BME280;10058;57.654;12.044;2023-02-19T06:33:31;100609.44;;;0.07;100.00
19797;BME280;10058;57.654;12.044;2023-02-19T06:35:57;100612.94;;;0.20;100.00
19797;BME280;10058;57.654;12.044;2023-02-19T06:38:23;100615.06;;;0.26;100.00
19797;BME280;10058;57.654;12.044;2023-02-19T06:40:49;100619.66;;;0.30;100.00
19797;BME280;10058;57.654;12.044;2023-02-19T06:43:14;100618.78;;;0.29;100.00
19797;BME280;10058;57.654;12.044;2023-02-19T06:48:42;100631.66;;;0.54;100.00
19797;BME280;10058;57.654;12.044;2023-02-19T06:51:14;100627.84;;;0.62;100.00
19797;BME280;10058;57.654;12.044;2023-02-19T06:53:42;100614.84;;;0.62;100.00
19797;BME280;10058;57.654;12.044;2023-02-19T06:58:48;100563.03;;;0.52;100.00
19797;BME280;10058;57.654;12.044;2023-02-19T07:01:13;100630.41;;;0.89;100.00
19797;BME280;10058;57.654;12.044;2023-02-19T07:03:38;100634.25;;;0.67;100.00
19797;BME280;10058;57.654;12.044;2023-02-19T07:09:07;100632.84;;;0.59;100.00
19797;BME280;10058;57.654;12.044;2023-02-19T07:11:33;100634.25;;;0.67;100.00
19797;BME280;10058;57.654;12.044;2023-02-19T07:13:59;100619.03;;;0.74;100.00
19797;BME280;10058;57.654;12.044;2023-02-19T07:16:25;100632.13;;;0.75;100.00
19797;BME280;10058;57.654;12.044;2023-02-19T07:18:50;100640.53;;;0.71;100.00
19797;BME280;10058;57.654;12.044;2023-02-19T07:21:16;100648.84;;;0.79;100.00
19797;BME280;10058;57.654;12.044;2023-02-19T07:23:41;100655.63;;;0.90;100.00
19797;BME280;10058;57.654;12.044;2023-02-19T07:26:07;100658.81;;;0.99;100.00
19797;BME280;10058;57.654;12.044;2023-02-19T07:28:33;100649.97;;;1.10;100.00
19797;BME280;10058;57.654;12.044;2023-02-19T07:31:01;100663.59;;;1.19;100.00
19797;BME280;10058;57.654;12.044;2023-02-19T07:33:27;100663.59;;;1.19;100.00
19797;BME280;10058;57.654;12.044;2023-02-19T07:35:53;100624.19;;;1.00;100.00
19797;BME280;10058;57.654;12.044;2023-02-19T07:38:18;100658.25;;;1.31;100.00
19797;BME280;10058;57.654;12.044;2023-02-19T07:40:54;100656.47;;;1.45;100.00
19797;BME280;10058;57.654;12.044;2023-02-19T07:43:19;100659.66;;;1.54;100.00
19797;BME280;10058;57.654;12.044;2023-02-19T07:48:48;100655.13;;;1.79;100.00
19797;BME280;10058;57.654;12.044;2023-02-19T07:51:14;100652.28;;;1.89;100.00
19797;BME280;10058;57.654;12.044;2023-02-19T07:53:43;100650.81;;;1.94;100.00
19797;BME280;10058;57.654;12.044;2023-02-19T07:56:09;100641.16;;;2.06;100.00
19797;BME280;10058;57.654;12.044;2023-02-19T07:58:35;100646.72;;;2.13;100.00
19797;BME280;10058;57.654;12.044;2023-02-19T08:01:10;100652.47;;;2.22;100.00
19797;BME280;10058;57.654;12.044;2023-02-19T08:03:37;100662.19;;;2.39;100.00
19797;BME280;10058;57.654;12.044;2023-02-19T08:09:05;100671.69;;;2.53;100.00
19797;BME280;10058;57.654;12.044;2023-02-19T08:11:30;100677.09;;;2.56;100.00
19797;BME280;10058;57.654;12.044;2023-02-19T08:14:14;100680.22;;;2.65;100.00
19797;BME280;10058;57.654;12.044;2023-02-19T08:16:46;100683.00;;;2.68;100.00
19797;BME280;10058;57.654;12.044;2023-02-19T08:19:11;100681.75;;;2.76;100.00
19797;BME280;10058;57.654;12.044;2023-02-19T08:21:37;100677.03;;;2.86;100.00
19797;BME280;10058;57.654;12.044;2023-02-19T08:24:02;100666.91;;;2.75;100.00
19797;BME280;10058;57.654;12.044;2023-02-19T08:29:30;100681.94;;;2.50;100.00
19797;BME280;10058;57.654;12.044;2023-02-19T08:31:55;100688.84;;;2.64;100.00
19797;BME280;10058;57.654;12.044;2023-02-19T08:34:20;100691.91;;;2.72;100.00
19797;BME280;10058;57.654;12.044;2023-02-19T08:36:45;100692.91;;;2.74;100.00
19797;BME280;10058;57.654;12.044;2023-02-19T08:39:10;100689.09;;;2.84;100.00
19797;BME280;10058;57.654;12.044;2023-02-19T08:41:36;100685.63;;;2.99;100.00
19797;BME280;10058;57.654;12.044;2023-02-19T08:44:01;100693.19;;;3.09;100.00
19797;BME280;10058;57.654;12.044;2023-02-19T08:49:29;100698.19;;;3.21;100.00
19797;BME280;10058;57.654;12.044;2023-02-19T08:51:54;100696.56;;;3.23;100.00
19797;BME280;10058;57.654;12.044;2023-02-19T08:54:19;100700.81;;;3.37;100.00
19797;BME280;10058;57.654;12.044;2023-02-19T08:56:45;100699.19;;;3.39;100.00
19797;BME280;10058;57.654;12.044;2023-02-19T08:59:10;100704.91;;;3.48;100.00
19797;BME280;10058;57.654;12.044;2023-02-19T09:01:35;100698.31;;;3.39;100.00
19797;BME280;10058;57.654;12.044;2023-02-19T09:04:00;100697.75;;;3.44;100.00
19797;BME280;10058;57.654;12.044;2023-02-19T09:09:28;100702.47;;;3.68;100.00
19797;BME280;10058;57.654;12.044;2023-02-19T09:11:53;100702.81;;;3.74;100.00
19797;BME280;10058;57.654;12.044;2023-02-19T09:14:19;100703.16;;;3.80;100.00
19797;BME280;10058;57.654;12.044;2023-02-19T09:16:44;100710.19;;;3.97;100.00
19797;BME280;10058;57.654;12.044;2023-02-19T09:19:09;100706.13;;;4.20;100.00
19797;BME280;10058;57.654;12.044;2023-02-19T09:21:34;100712.47;;;4.41;100.00
19797;BME280;10058;57.654;12.044;2023-02-19T09:23:59;100714.72;;;4.51;100.00
19797;BME280;10058;57.654;12.044;2023-02-19T09:29:27;100714.16;;;4.93;100.00
19797;BME280;10058;57.654;12.044;2023-02-19T09:31:56;100715.22;;;4.96;100.00
19797;BME280;10058;57.654;12.044;2023-02-19T09:34:22;100720.00;;;5.05;100.00
19797;BME280;10058;57.654;12.044;2023-02-19T09:36:47;100718.19;;;5.21;100.00
19797;BME280;10058;57.654;12.044;2023-02-19T09:39:13;100728.00;;;4.90;100.00
19797;BME280;10058;57.654;12.044;2023-02-19T09:41:42;100718.06;;;5.01;100.00
19797;BME280;10058;57.654;12.044;2023-02-19T09:44:12;100714.47;;;4.99;100.00
19797;BME280;10058;57.654;12.044;2023-02-19T09:49:41;100718.03;;;5.36;100.00
19797;BME280;10058;57.654;12.044;2023-02-19T09:52:16;100724.19;;;5.19;100.00
19797;BME280;10058;57.654;12.044;2023-02-19T09:54:42;100721.50;;;5.35;100.00
19797;BME280;10058;57.654;12.044;2023-02-19T09:57:11;100727.91;;;5.24;100.00
19797;BME280;10058;57.654;12.044;2023-02-19T09:59:43;100737.06;;;4.97;100.00
19797;BME280;10058;57.654;12.044;2023-02-19T10:02:16;100723.13;;;5.33;100.00
19797;BME280;10058;57.654;12.044;2023-02-19T10:04:43;100743.34;;;5.36;100.00
19797;BME280;10058;57.654;12.044;2023-02-19T10:07:12;100746.00;;;5.37;100.00
19797;BME280;10058;57.654;12.044;2023-02-19T10:09:38;100748.59;;;5.18;100.00
19797;BME280;10058;57.654;12.044;2023-02-19T10:12:03;100756.06;;;5.46;100.00
19797;BME280;10058;57.654;12.044;2023-02-19T10:14:40;100749.59;;;5.57;100.00
19797;BME280;10058;57.654;12.044;2023-02-19T10:17:07;100746.22;;;5.59;100.00
19797;BME280;10058;57.654;12.044;2023-02-19T10:19:37;100749.91;;;5.82;100.00
19797;BME280;10058;57.654;12.044;2023-02-19T10:22:03;100755.22;;;5.84;100.00
19797;BME280;10058;57.654;12.044;2023-02-19T10:27:37;100761.84;;;5.76;100.00
19797;BME280;10058;57.654;12.044;2023-02-19T10:30:02;100752.81;;;5.69;100.00
19797;BME280;10058;57.654;12.044;2023-02-19T10:32:29;100757.78;;;5.82;100.00
19797;BME280;10058;57.654;12.044;2023-02-19T10:35:27;100752.66;;;6.22;100.00
19797;BME280;10058;57.654;12.044;2023-02-19T10:37:46;100745.44;;;6.38;100.00
19797;BME280;10058;57.654;12.044;2023-02-19T10:40:16;100739.81;;;6.49;100.00
19797;BME280;10058;57.654;12.044;2023-02-19T10:42:46;100745.66;;;6.63;100.00
19797;BME280;10058;57.654;12.044;2023-02-19T10:48:27;100741.78;;;6.74;100.00
19797;BME280;10058;57.654;12.044;2023-02-19T10:50:54;100748.16;;;6.60;100.00
19797;BME280;10058;57.654;12.044;2023-02-19T10:53:22;100752.13;;;6.50;100.00
19797;BME280;10058;57.654;12.044;2023-02-19T10:55:48;100749.94;;;6.61;100.00
19797;BME280;10058;57.654;12.044;2023-02-19T10:58:29;100756.47;;;6.50;100.00
19797;BME280;10058;57.654;12.044;2023-02-19T11:01:14;100758.13;;;6.48;100.00
19797;BME280;10058;57.654;12.044;2023-02-19T11:03:40;100749.13;;;6.62;100.00
19797;BME280;10058;57.654;12.044;2023-02-19T11:09:21;100739.44;;;6.61;100.00
19797;BME280;10058;57.654;12.044;2023-02-19T11:11:49;100743.03;;;6.63;100.00
19797;BME280;10058;57.654;12.044;2023-02-19T11:14:17;100749.47;;;6.90;100.00
19797;BME280;10058;57.654;12.044;2023-02-19T11:16:46;100742.41;;;6.89;100.00
19797;BME280;10058;57.654;12.044;2023-02-19T11:21:50;100738.19;;;6.72;100.00
19797;BME280;10058;57.654;12.044;2023-02-19T11:24:20;100737.47;;;6.76;100.00
19797;BME280;10058;57.654;12.044;2023-02-19T11:29:49;100744.22;;;6.90;100.00
19797;BME280;10058;57.654;12.044;2023-02-19T11:34:49;100733.44;;;6.84;100.00
19797;BME280;10058;57.654;12.044;2023-02-19T11:37:15;100735.38;;;6.88;100.00
19797;BME280;10058;57.654;12.044;2023-02-19T11:39:42;100748.44;;;6.66;100.00
19797;BME280;10058;57.654;12.044;2023-02-19T11:53:13;100747.06;;;6.15;100.00
19797;BME280;10058;57.654;12.044;2023-02-19T11:55:48;100737.88;;;6.45;100.00
19797;BME280;10058;57.654;12.044;2023-02-19T12:00:45;100749.41;;;5.72;100.00
19797;BME280;10058;57.654;12.044;2023-02-19T12:11:42;100742.56;;;5.38;100.00
19797;BME280;10058;57.654;12.044;2023-02-19T12:29:53;100724.19;;;5.37;100.00
19797;BME280;10058;57.654;12.044;2023-02-19T12:34:56;100714.88;;;5.43;100.00
19797;BME280;10058;57.654;12.044;2023-02-19T12:37:43;100713.22;;;5.45;100.00
19797;BME280;10058;57.654;12.044;2023-02-19T12:40:26;100718.16;;;5.39;100.00
19797;BME280;10058;57.654;12.044;2023-02-19T12:42:58;100720.59;;;5.17;100.00
19797;BME280;10058;57.654;12.044;2023-02-19T12:48:31;100714.00;;;5.25;100.00
19797;BME280;10058;57.654;12.044;2023-02-19T12:51:34;100717.00;;;5.15;100.00
19797;BME280;10058;57.654;12.044;2023-02-19T12:53:55;100707.44;;;4.98;100.00
19797;BME280;10058;57.654;12.044;2023-02-19T12:56:37;100688.13;;;4.96;100.00
19797;BME280;10058;57.654;12.044;2023-02-19T12:59:05;100679.59;;;5.00;100.00
19797;BME280;10058;57.654;12.044;2023-02-19T13:01:34;100693.38;;;4.96;100.00
19797;BME280;10058;57.654;12.044;2023-02-19T13:09:57;100678.09;;;4.87;100.00
19797;BME280;10058;57.654;12.044;2023-02-19T13:14:59;100660.47;;;4.83;100.00
19797;BME280;10058;57.654;12.044;2023-02-19T13:17:35;100662.53;;;4.72;100.00
19797;BME280;10058;57.654;12.044;2023-02-19T13:22:50;100640.69;;;4.54;100.00
19797;BME280;10058;57.654;12.044;2023-02-19T13:34:43;100627.84;;;4.76;100.00
19797;BME280;10058;57.654;12.044;2023-02-19T13:37:09;100639.72;;;4.87;100.00
19797;BME280;10058;57.654;12.044;2023-02-19T13:39:35;100626.75;;;4.90;100.00
19797;BME280;10058;57.654;12.044;2023-02-19T13:42:00;100616.75;;;5.00;100.00
19797;BME280;10058;57.654;12.044;2023-02-19T13:50:31;100619.25;;;5.16;100.00
19797;BME280;10058;57.654;12.044;2023-02-19T13:52:57;100609.06;;;5.60;100.00
19797;BME280;10058;57.654;12.044;2023-02-19T14:00:50;100598.19;;;5.51;100.00
19797;BME280;10058;57.654;12.044;2023-02-19T14:03:25;100597.59;;;5.58;100.00
19797;BME280;10058;57.654;12.044;2023-02-19T14:08:54;100591.03;;;5.87;100.00
19797;BME280;10058;57.654;12.044;2023-02-19T14:12:21;100600.34;;;6.00;100.00
19797;BME280;10058;57.654;12.044;2023-02-19T14:14:33;100588.72;;;6.14;100.00
19797;BME280;10058;57.654;12.044;2023-02-19T14:17:00;100588.84;;;6.17;100.00
19797;BME280;10058;57.654;12.044;2023-02-19T14:22:49;100585.88;;;6.31;100.00
19797;BME280;10058;57.654;12.044;2023-02-19T14:30:56;100571.31;;;6.59;100.00
19797;BME280;10058;57.654;12.044;2023-02-19T14:33:34;100580.31;;;6.44;100.00
19797;BME280;10058;57.654;12.044;2023-02-19T14:36:02;100590.25;;;6.51;100.00
19797;BME280;10058;57.654;12.044;2023-02-19T14:38:34;100601.56;;;6.50;100.00
19797;BME280;10058;57.654;12.044;2023-02-19T14:41:00;100606.75;;;6.48;100.00
19797;BME280;10058;57.654;12.044;2023-02-19T14:43:26;100620.22;;;6.56;100.00
19797;BME280;10058;57.654;12.044;2023-02-19T14:48:56;100608.28;;;6.64;100.00
19797;BME280;10058;57.654;12.044;2023-02-19T14:51:25;100612.47;;;6.81;100.00
19797;BME280;10058;57.654;12.044;2023-02-19T14:53:53;100603.41;;;6.73;100.00
19797;BME280;10058;57.654;12.044;2023-02-19T14:56:22;100614.00;;;6.76;100.00
19797;BME280;10058;57.654;12.044;2023-02-19T15:01:33;100612.47;;;6.81;100.00
19797;BME280;10058;57.654;12.044;2023-02-19T15:09:52;100603.41;;;6.73;100.00
19797;BME280;10058;57.654;12.044;2023-02-19T15:12:22;100600.16;;;6.80;100.00
19797;BME280;10058;57.654;12.044;2023-02-19T15:14:48;100577.22;;;6.76;100.00
19797;BME280;10058;57.654;12.044;2023-02-19T15:17:18;100577.88;;;6.91;100.00
19797;BME280;10058;57.654;12.044;2023-02-19T15:19:46;100584.78;;;6.89;100.00
19797;BME280;10058;57.654;12.044;2023-02-19T15:22:16;100578.50;;;6.86;100.00
19797;BME280;10058;57.654;12.044;2023-02-19T15:27:46;100574.72;;;6.79;100.00
19797;BME280;10058;57.654;12.044;2023-02-19T15:30:19;100565.97;;;6.79;100.00
19797;BME280;10058;57.654;12.044;2023-02-19T15:32:55;100569.16;;;6.92;100.00
19797;BME280;10058;57.654;12.044;2023-02-19T15:35:20;100561.22;;;6.91;100.00
19797;BME280;10058;57.654;12.044;2023-02-19T15:37:47;100569.13;;;6.70;100.00
19797;BME280;10058;57.654;12.044;2023-02-19T15:40:12;100575.53;;;6.99;100.00
19797;BME280;10058;57.654;12.044;2023-02-19T15:42:38;100581.06;;;6.84;100.00
19797;BME280;10058;57.654;12.044;2023-02-19T15:48:12;100583.81;;;6.87;100.00
19797;BME280;10058;57.654;12.044;2023-02-19T15:50:40;100587.16;;;6.83;100.00
19797;BME280;10058;57.654;12.044;2023-02-19T15:53:15;100591.59;;;6.84;100.00
19797;BME280;10058;57.654;12.044;2023-02-19T15:55:44;100580.53;;;6.93;100.00
19797;BME280;10058;57.654;12.044;2023-02-19T16:00:43;100586.47;;;6.87;100.00
19797;BME280;10058;57.654;12.044;2023-02-19T16:03:21;100593.72;;;6.94;100.00
19797;BME280;10058;57.654;12.044;2023-02-19T16:11:28;100589.31;;;6.71;100.00
19797;BME280;10058;57.654;12.044;2023-02-19T16:16:37;100576.06;;;6.90;100.00
19797;BME280;10058;57.654;12.044;2023-02-19T16:19:04;100580.00;;;6.79;100.00
19797;BME280;10058;57.654;12.044;2023-02-19T16:21:29;100580.44;;;6.90;100.00
19797;BME280;10058;57.654;12.044;2023-02-19T16:24:00;100581.38;;;6.70;100.00
19797;BME280;10058;57.654;12.044;2023-02-19T16:29:30;100577.97;;;6.72;100.00
19797;BME280;10058;57.654;12.044;2023-02-19T16:31:57;100580.06;;;6.81;100.00
19797;BME280;10058;57.654;12.044;2023-02-19T16:36:54;100571.28;;;6.80;100.00
19797;BME280;10058;57.654;12.044;2023-02-19T16:39:20;100569.84;;;6.88;100.00
19797;BME280;10058;57.654;12.044;2023-02-19T16:49:47;100565.63;;;6.70;100.00
19797;BME280;10058;57.654;12.044;2023-02-19T16:52:13;100576.66;;;6.83;100.00
19797;BME280;10058;57.654;12.044;2023-02-19T16:54:39;100571.28;;;6.80;100.00
19797;BME280;10058;57.654;12.044;2023-02-19T16:57:04;100565.19;;;6.81;100.00
19797;BME280;10058;57.654;12.044;2023-02-19T16:59:29;100547.88;;;6.86;100.00
19797;BME280;10058;57.654;12.044;2023-02-19T17:01:54;100545.13;;;6.83;100.00